createdAt,value
2018-06-05T00:01:16.362Z,69.34
2018-06-05T00:03:45.614Z,69.58
2018-06-05T00:06:14.853Z,69.98
2018-06-05T00:08:44.094Z,70.40
2018-06-05T00:11:13.322Z,70.59
2018-06-05T00:13:42.640Z,70.57
2018-06-05T00:16:11.855Z,71.00
2018-06-05T00:18:41.134Z,71.53
2018-06-05T00:21:10.394Z,70.82
2018-06-05T00:23:39.642Z,71.43
2018-06-05T00:26:08.887Z,71.83
2018-06-05T00:28:38.209Z,72.28
2018-06-05T00:31:07.481Z,72.24
2018-06-05T00:33:36.775Z,73.40
2018-06-05T00:36:06.019Z,73.46
2018-06-05T00:38:35.314Z,73.31
2018-06-05T00:41:04.641Z,73.25
2018-06-05T00:43:33.908Z,73.68
2018-06-05T00:46:03.280Z,73.80
2018-06-05T00:48:32.500Z,73.83
2018-06-05T00:51:02.945Z,74.43
2018-06-05T00:53:32.190Z,74.19
2018-06-05T00:56:01.556Z,74.16
2018-06-05T00:58:30.818Z,74.49
2018-06-05T01:01:00.071Z,74.57
2018-06-05T01:03:29.294Z,74.25
2018-06-05T01:05:58.570Z,74.83
2018-06-05T01:08:27.798Z,75.96
2018-06-05T01:10:57.464Z,75.67
2018-06-05T01:13:26.651Z,76.16
2018-06-05T01:15:55.890Z,75.78
2018-06-05T01:18:25.113Z,75.99
2018-06-05T01:20:54.342Z,76.45
2018-06-05T01:23:23.586Z,76.37
2018-06-05T01:25:52.937Z,76.68
2018-06-05T01:28:22.194Z,77.14
2018-06-05T01:30:51.438Z,77.63
2018-06-05T01:33:20.730Z,77.48
2018-06-05T01:35:50.076Z,77.41
2018-06-05T01:38:19.290Z,77.33
2018-06-05T01:40:48.529Z,78.19
2018-06-05T01:43:17.821Z,78.29
2018-06-05T01:45:47.064Z,77.86
2018-06-05T01:48:16.306Z,77.44
2018-06-05T01:50:45.767Z,77.04
2018-06-05T01:53:14.970Z,77.28
2018-06-05T01:55:44.201Z,77.39
2018-06-05T01:58:13.422Z,77.65
2018-06-05T02:00:42.715Z,77.62
2018-06-05T02:03:12.418Z,78.34
2018-06-05T02:05:41.604Z,77.44
2018-06-05T02:08:10.727Z,77.51
2018-06-05T02:10:40.013Z,77.55
2018-06-05T02:13:09.266Z,77.65
2018-06-05T02:15:38.547Z,77.94
2018-06-05T02:18:07.887Z,78.07
2018-06-05T02:20:37.150Z,78.18
2018-06-05T02:23:06.410Z,78.72
2018-06-05T02:25:35.657Z,78.20
2018-06-05T02:28:04.979Z,78.05
2018-06-05T02:30:34.186Z,78.29
2018-06-05T02:33:03.478Z,78.66
2018-06-05T02:35:32.735Z,77.92
2018-06-05T02:38:02.053Z,78.29
2018-06-05T02:40:31.347Z,78.87
2018-06-05T02:43:00.643Z,78.62
2018-06-05T02:45:29.969Z,78.79
2018-06-05T02:47:59.296Z,79.09
2018-06-05T02:50:29.913Z,79.28
2018-06-05T02:52:59.269Z,79.06
2018-06-05T02:55:28.545Z,79.27
2018-06-05T02:57:57.815Z,79.44
2018-06-05T03:00:27.146Z,79.73
2018-06-05T03:02:56.431Z,79.59
2018-06-05T03:05:26.032Z,79.18
2018-06-05T03:07:55.338Z,79.65
2018-06-05T03:10:24.301Z,80.13
2018-06-05T03:12:53.588Z,80.31
2018-06-05T03:15:22.837Z,80.62
2018-06-05T03:17:52.541Z,80.78
2018-06-05T03:20:21.770Z,80.74
2018-06-05T03:22:51.143Z,81.08
2018-06-05T03:25:20.476Z,80.71
2018-06-05T03:27:49.711Z,80.28
2018-06-05T03:30:21.739Z,80.35
2018-06-05T03:32:51.016Z,79.81
2018-06-05T03:35:20.251Z,79.99
2018-06-05T03:37:50.676Z,79.44
2018-06-05T03:40:19.879Z,79.46
2018-06-05T03:42:50.645Z,79.41
2018-06-05T03:45:19.852Z,79.95
2018-06-05T03:47:49.094Z,79.42
2018-06-05T03:50:18.336Z,79.33
2018-06-05T03:52:47.307Z,79.18
2018-06-05T03:55:16.631Z,79.32
2018-06-05T03:57:45.920Z,78.90
2018-06-05T04:00:15.165Z,79.29
2018-06-05T04:02:45.271Z,79.85
2018-06-05T04:05:14.587Z,79.31
2018-06-05T04:07:43.876Z,78.80
2018-06-05T04:10:13.160Z,78.26
2018-06-05T04:12:42.462Z,78.14
2018-06-05T04:15:11.718Z,78.40
2018-06-05T04:17:41.026Z,78.53
2018-06-05T04:20:10.288Z,78.02
2018-06-05T04:22:39.552Z,77.94
2018-06-05T04:25:08.811Z,78.26
2018-06-05T04:27:38.352Z,78.96
2018-06-05T04:30:07.625Z,78.40
2018-06-05T04:32:40.775Z,78.45
2018-06-05T04:35:10.013Z,78.48
2018-06-05T04:37:39.257Z,78.63
2018-06-05T04:40:08.927Z,78.45
2018-06-05T04:42:37.875Z,77.26
2018-06-05T04:45:07.170Z,76.65
2018-06-05T04:47:36.402Z,76.99
2018-06-05T04:50:05.781Z,77.36
2018-06-05T04:52:35.040Z,76.47
2018-06-05T04:55:04.380Z,75.71
2018-06-05T04:57:33.653Z,75.67
2018-06-05T05:00:02.706Z,74.81
2018-06-05T05:02:31.931Z,73.49
2018-06-05T05:05:01.175Z,72.59
2018-06-05T05:07:30.161Z,71.26
2018-06-05T05:09:59.394Z,72.22
2018-06-05T05:12:28.662Z,72.38
2018-06-05T05:14:57.910Z,72.07
2018-06-05T05:17:27.154Z,70.72
2018-06-05T05:19:56.446Z,69.86
2018-06-05T05:22:25.738Z,70.74
2018-06-05T05:24:54.882Z,70.00
2018-06-05T05:27:24.112Z,69.95
2018-06-05T05:29:53.427Z,69.80
2018-06-05T05:32:22.673Z,70.37
2018-06-05T05:34:51.999Z,70.04
2018-06-05T05:37:21.240Z,72.30
2018-06-05T05:39:50.873Z,71.45
2018-06-05T05:42:20.135Z,71.31
2018-06-05T05:44:49.428Z,71.33
2018-06-05T05:47:18.911Z,70.46
2018-06-05T05:49:48.259Z,70.20
2018-06-05T05:52:18.050Z,69.99
2018-06-05T05:54:47.338Z,70.76
2018-06-05T05:57:16.680Z,71.68
2018-06-05T05:59:45.927Z,68.99
2018-06-05T06:02:15.174Z,69.26
2018-06-05T06:04:44.173Z,66.21
2018-06-05T06:07:13.439Z,64.92
2018-06-05T06:09:42.702Z,63.92
2018-06-05T06:12:11.724Z,63.16
2018-06-05T06:14:41.003Z,61.73
2018-06-05T06:17:10.315Z,59.96
2018-06-05T06:19:39.620Z,58.23
2018-06-05T06:22:08.887Z,59.02
2018-06-05T06:24:38.139Z,56.57
2018-06-05T06:27:07.483Z,58.04
2018-06-05T06:29:36.748Z,57.58
2018-06-05T06:32:06.346Z,56.95
2018-06-05T06:34:35.642Z,54.43
2018-06-05T06:37:04.897Z,55.11
2018-06-05T06:39:33.930Z,52.88
2018-06-05T06:42:03.190Z,52.89
2018-06-05T06:44:32.458Z,52.16
2018-06-05T06:47:01.724Z,53.33
2018-06-05T06:49:30.970Z,52.02
2018-06-05T06:52:00.209Z,53.53
2018-06-05T06:54:29.455Z,52.15
2018-06-05T06:56:58.700Z,53.61
2018-06-05T06:59:27.928Z,52.37
2018-06-05T07:01:57.184Z,51.95
2018-06-05T07:04:26.446Z,51.58
2018-06-05T07:06:55.716Z,52.35
2018-06-05T07:09:24.950Z,51.00
2018-06-05T07:11:54.250Z,51.70
2018-06-05T07:14:23.498Z,52.16
2018-06-05T07:16:52.713Z,50.62
2018-06-05T07:19:21.930Z,49.73
2018-06-05T07:21:51.212Z,50.05
2018-06-05T07:24:20.544Z,51.49
2018-06-05T07:26:49.819Z,51.00
2018-06-05T07:29:19.161Z,51.16
2018-06-05T07:31:48.427Z,49.99
2018-06-05T07:34:17.706Z,51.65
2018-06-05T07:36:46.988Z,51.57
2018-06-05T07:39:16.697Z,51.25
2018-06-05T07:41:45.958Z,52.66
2018-06-05T07:44:19.781Z,49.80
2018-06-05T07:46:48.954Z,48.76
2018-06-05T07:49:18.270Z,50.26
2018-06-05T07:51:47.482Z,47.84
2018-06-05T07:54:16.739Z,48.37
2018-06-05T07:56:46.066Z,47.91
2018-06-05T07:59:15.407Z,48.03
2018-06-05T08:01:44.647Z,48.02
2018-06-05T08:04:13.928Z,47.85
2018-06-05T08:06:43.139Z,47.12
2018-06-05T08:09:12.428Z,46.92
2018-06-05T08:11:41.698Z,46.37
2018-06-05T08:14:10.973Z,46.94
2018-06-05T08:16:40.298Z,46.85
2018-06-05T08:19:09.584Z,45.73
2018-06-05T08:21:38.824Z,45.64
2018-06-05T08:24:08.174Z,46.40
2018-06-05T08:26:56.105Z,45.29
2018-06-05T08:29:25.341Z,44.98
2018-06-05T08:31:54.567Z,44.95
2018-06-05T08:34:23.860Z,45.37
2018-06-05T08:36:53.092Z,44.83
2018-06-05T08:39:22.385Z,44.38
2018-06-05T08:41:51.619Z,45.04
2018-06-05T08:44:20.915Z,43.04
2018-06-05T08:46:50.147Z,45.15
2018-06-05T08:49:19.446Z,42.68
2018-06-05T08:51:48.437Z,43.66
2018-06-05T08:54:17.698Z,44.77
2018-06-05T08:56:46.956Z,43.00
2018-06-05T08:59:18.839Z,43.04
2018-06-05T09:01:48.142Z,43.34
2018-06-05T09:04:17.453Z,42.79
2018-06-05T09:06:46.638Z,41.45
2018-06-05T09:09:15.557Z,43.59
2018-06-05T09:11:44.874Z,42.28
2018-06-05T09:16:55.781Z,41.72
2018-06-05T09:19:25.074Z,41.78
2018-06-05T09:21:54.419Z,40.57
2018-06-05T09:24:23.742Z,40.53
2018-06-05T09:26:53.123Z,40.43
2018-06-05T09:29:22.436Z,40.52
2018-06-05T09:31:51.777Z,41.55
2018-06-05T09:34:21.435Z,40.70
2018-06-05T09:36:50.750Z,41.31
2018-06-05T09:39:19.789Z,40.34
2018-06-05T09:41:50.265Z,40.95
2018-06-05T09:44:27.408Z,40.70
2018-06-05T09:47:03.453Z,39.17
2018-06-05T09:49:41.505Z,38.71
2018-06-05T09:52:17.829Z,41.46
2018-06-05T09:54:47.020Z,41.67
2018-06-05T09:57:16.266Z,42.41
2018-06-05T09:59:45.515Z,41.29
2018-06-05T10:02:14.756Z,42.21
2018-06-05T10:04:44.067Z,40.91
2018-06-05T10:07:13.458Z,40.28
2018-06-05T10:09:42.755Z,40.52
2018-06-05T10:12:12.196Z,40.97
2018-06-05T10:14:41.537Z,39.35
2018-06-05T10:17:10.893Z,39.08
2018-06-05T10:19:40.127Z,39.03
2018-06-05T10:22:09.481Z,39.76
2018-06-05T10:24:38.710Z,38.69
2018-06-05T10:27:07.952Z,37.41
2018-06-05T10:29:37.203Z,37.55
2018-06-05T10:32:06.223Z,36.53
2018-06-05T10:34:35.475Z,38.24
2018-06-05T10:37:04.978Z,37.34
2018-06-05T10:39:34.251Z,38.13
2018-06-05T10:42:03.559Z,37.88
2018-06-05T10:44:32.859Z,37.38
2018-06-05T10:47:02.099Z,37.44
2018-06-05T10:49:31.410Z,37.46
2018-06-05T10:52:00.694Z,36.19
2018-06-05T10:54:29.939Z,38.67
2018-06-05T10:56:59.201Z,36.68
2018-06-05T10:59:28.447Z,37.53
2018-06-05T11:01:57.732Z,36.29
2018-06-05T11:04:26.942Z,37.60
2018-06-05T11:06:56.190Z,36.18
2018-06-05T11:09:25.465Z,35.68
2018-06-05T11:11:54.698Z,37.80
2018-06-05T11:14:23.930Z,37.38
2018-06-05T11:16:53.147Z,37.28
2018-06-05T11:19:22.337Z,36.76
2018-06-05T11:21:51.591Z,35.38
2018-06-05T11:24:20.810Z,36.00
2018-06-05T11:26:50.071Z,36.69
2018-06-05T11:29:19.266Z,33.98
2018-06-05T11:31:48.509Z,34.53
2018-06-05T11:34:17.726Z,36.63
2018-06-05T11:36:47.051Z,38.98
2018-06-05T11:39:16.335Z,38.01
2018-06-05T11:41:45.566Z,38.88
2018-06-05T11:44:14.847Z,38.36
2018-06-05T11:46:44.161Z,37.91
2018-06-05T11:49:13.443Z,37.21
2018-06-05T11:51:42.694Z,36.09
2018-06-05T11:54:12.086Z,34.88
2018-06-05T11:56:41.331Z,36.16
2018-06-05T11:59:10.627Z,33.43
2018-06-05T12:01:39.861Z,31.64
2018-06-05T12:04:09.351Z,33.06
2018-06-05T12:06:38.530Z,35.12
2018-06-05T12:09:09.302Z,34.37
2018-06-05T12:11:38.485Z,33.41
2018-06-05T12:14:07.645Z,35.66
2018-06-05T12:16:36.878Z,34.11
2018-06-05T12:19:06.123Z,33.00
2018-06-05T12:21:35.341Z,33.77
2018-06-05T12:24:04.562Z,34.48
2018-06-05T12:26:33.768Z,35.35
2018-06-05T12:29:02.983Z,34.15
2018-06-05T12:31:32.282Z,34.08
2018-06-05T12:34:01.503Z,35.68
2018-06-05T12:36:30.730Z,36.06
2018-06-05T12:38:59.955Z,35.70
2018-06-05T12:41:29.231Z,36.14
2018-06-05T12:43:58.518Z,34.78
2018-06-05T12:46:27.742Z,33.87
2018-06-05T12:48:56.985Z,33.97
2018-06-05T12:51:26.226Z,33.84
2018-06-05T12:53:55.441Z,33.75
2018-06-05T12:56:24.678Z,33.68
2018-06-05T12:58:53.907Z,33.26
2018-06-05T13:01:23.155Z,32.96
2018-06-05T13:03:52.441Z,32.82
2018-06-05T13:06:21.779Z,31.77
2018-06-05T13:08:51.023Z,32.40
2018-06-05T13:11:20.332Z,31.90
2018-06-05T13:13:49.599Z,30.02
2018-06-05T13:16:18.860Z,31.16
2018-06-05T13:18:48.106Z,29.98
2018-06-05T13:21:17.402Z,30.07
2018-06-05T13:23:46.629Z,29.58
2018-06-05T13:26:15.943Z,32.02
2018-06-05T13:28:45.163Z,33.52
2018-06-05T13:31:14.406Z,33.75
2018-06-05T13:33:43.671Z,35.29
2018-06-05T13:36:13.025Z,35.20
2018-06-05T13:38:42.285Z,37.05
2018-06-05T13:41:11.379Z,36.85
2018-06-05T13:43:40.675Z,37.68
2018-06-05T13:46:09.930Z,37.80
2018-06-05T13:48:39.175Z,38.65
2018-06-05T13:51:08.426Z,37.42
2018-06-05T13:53:37.671Z,37.49
2018-06-05T13:56:06.945Z,37.06
2018-06-05T13:58:36.192Z,35.02
2018-06-05T14:01:05.426Z,34.41
2018-06-05T14:03:34.662Z,35.49
2018-06-05T14:06:03.926Z,35.15
2018-06-05T14:08:33.187Z,34.64
2018-06-05T14:11:02.473Z,35.18
2018-06-05T14:13:31.780Z,34.42
2018-06-05T14:16:01.273Z,36.12
2018-06-05T14:18:30.510Z,36.71
2018-06-05T14:20:59.759Z,35.26
2018-06-05T14:23:29.014Z,35.33
2018-06-05T14:25:58.289Z,35.88
2018-06-05T14:28:27.562Z,35.44
2018-06-05T14:30:56.810Z,34.33
2018-06-05T14:33:26.073Z,34.63
2018-06-05T14:35:55.295Z,33.35
2018-06-05T14:38:25.559Z,33.37
2018-06-05T14:40:54.767Z,33.52
2018-06-05T14:43:24.045Z,32.66
2018-06-05T14:45:53.256Z,32.81
2018-06-05T14:48:22.515Z,32.51
2018-06-05T14:50:51.804Z,33.59
2018-06-05T14:53:21.087Z,35.04
2018-06-05T14:55:50.389Z,35.69
2018-06-05T14:58:19.667Z,36.63
2018-06-05T15:00:49.213Z,36.84
2018-06-05T15:03:18.850Z,38.24
2018-06-05T15:05:48.119Z,37.88
2018-06-05T15:08:17.371Z,38.21
2018-06-05T15:10:46.627Z,38.25
2018-06-05T15:13:15.875Z,38.73
2018-06-05T15:15:45.156Z,38.57
2018-06-05T15:18:14.426Z,38.33
2018-06-05T15:20:43.685Z,38.37
2018-06-05T15:23:13.072Z,38.38
2018-06-05T15:25:42.307Z,39.11
2018-06-05T15:28:11.625Z,39.11
2018-06-05T15:30:40.907Z,38.94
2018-06-05T15:33:10.154Z,39.23
2018-06-05T15:35:39.427Z,39.13
2018-06-05T15:38:08.686Z,38.86
2018-06-05T15:40:37.940Z,38.57
2018-06-05T15:43:07.313Z,40.14
2018-06-05T15:45:36.601Z,39.34
2018-06-05T15:48:05.995Z,39.06
2018-06-05T15:50:35.385Z,39.65
2018-06-05T15:53:04.626Z,38.60
2018-06-05T15:55:33.854Z,39.02
2018-06-05T15:58:03.161Z,39.17
2018-06-05T16:00:32.523Z,39.21
2018-06-05T16:03:01.783Z,39.20
2018-06-05T16:05:31.083Z,39.47
2018-06-05T16:08:00.331Z,39.64
2018-06-05T16:10:29.661Z,39.75
2018-06-05T16:12:58.886Z,39.65
2018-06-05T16:15:28.165Z,39.29
2018-06-05T16:17:57.387Z,39.56
2018-06-05T16:20:26.624Z,39.87
2018-06-05T16:22:55.842Z,39.58
2018-06-05T16:25:24.867Z,40.10
2018-06-05T16:27:54.094Z,40.30
2018-06-05T16:30:23.356Z,40.51
2018-06-05T16:32:52.600Z,41.30
2018-06-05T16:35:21.880Z,40.82
2018-06-05T16:37:51.132Z,39.78
2018-06-05T16:40:20.386Z,40.70
2018-06-05T16:42:49.627Z,40.76
2018-06-05T16:45:18.927Z,40.03
2018-06-05T16:47:48.195Z,39.95
2018-06-05T16:50:17.451Z,39.79
2018-06-05T16:52:46.700Z,40.22
2018-06-05T16:55:15.920Z,40.75
2018-06-05T16:57:45.172Z,40.00
2018-06-05T17:00:14.474Z,39.82
2018-06-05T17:02:43.734Z,39.69
2018-06-05T17:05:12.802Z,39.79
2018-06-05T17:07:42.067Z,40.31
2018-06-05T17:10:11.335Z,39.77
2018-06-05T17:12:40.551Z,39.53
2018-06-05T17:15:09.816Z,39.92
2018-06-05T17:17:39.077Z,39.97
2018-06-05T17:20:08.303Z,40.00
2018-06-05T17:22:37.497Z,39.79
2018-06-05T17:25:06.825Z,39.34
2018-06-05T17:27:36.079Z,39.00
2018-06-05T17:30:05.318Z,39.32
2018-06-05T17:32:34.547Z,39.54
2018-06-05T17:35:03.764Z,39.50
2018-06-05T17:37:33.054Z,40.26
2018-06-05T17:40:02.339Z,39.73
2018-06-05T17:42:31.579Z,39.56
2018-06-05T17:45:00.798Z,39.96
2018-06-05T17:47:30.043Z,40.11
2018-06-05T17:49:59.263Z,40.04
2018-06-05T17:52:28.549Z,40.39
2018-06-05T17:54:57.808Z,40.71
2018-06-05T17:57:27.073Z,40.63
2018-06-05T17:59:56.307Z,40.33
2018-06-05T18:02:25.363Z,40.27
2018-06-05T18:04:54.598Z,40.47
2018-06-05T18:07:23.866Z,40.53
2018-06-05T18:09:53.079Z,40.52
2018-06-05T18:12:22.359Z,40.47
2018-06-05T18:14:51.608Z,40.91
2018-06-05T18:17:20.821Z,40.76
2018-06-05T18:19:50.058Z,41.66
2018-06-05T18:22:19.310Z,41.18
2018-06-05T18:24:48.518Z,41.56
2018-06-05T18:27:17.762Z,41.74
2018-06-05T18:29:47.014Z,41.64
2018-06-05T18:32:16.211Z,42.18
2018-06-05T18:34:45.467Z,41.97
2018-06-05T18:37:14.797Z,42.68
2018-06-05T18:39:44.191Z,43.27
2018-06-05T18:42:13.439Z,43.48
2018-06-05T18:44:42.834Z,43.38
2018-06-05T18:47:12.124Z,43.77
2018-06-05T18:49:41.964Z,44.18
2018-06-05T18:52:11.279Z,44.22
2018-06-05T18:54:40.564Z,44.38
2018-06-05T18:57:09.790Z,44.53
2018-06-05T18:59:38.771Z,44.69
2018-06-05T19:02:07.972Z,44.50
2018-06-05T19:04:37.260Z,44.46
2018-06-05T19:07:06.525Z,45.10
2018-06-05T19:09:35.783Z,44.52
2018-06-05T19:12:04.814Z,44.82
2018-06-05T19:14:34.075Z,45.20
2018-06-05T19:17:03.270Z,45.19
2018-06-05T19:19:32.230Z,45.77
2018-06-05T19:22:01.497Z,46.15
2018-06-05T19:24:30.753Z,45.68
2018-06-05T19:27:00.015Z,45.91
2018-06-05T19:29:33.399Z,45.81
2018-06-05T19:32:03.639Z,46.78
2018-06-05T19:34:33.825Z,46.44
2018-06-05T19:37:04.712Z,46.53
2018-06-05T19:39:38.134Z,46.95
2018-06-05T19:42:08.883Z,47.11
2018-06-05T19:44:39.662Z,46.65
2018-06-05T19:47:09.755Z,47.31
2018-06-05T19:49:40.055Z,47.62
2018-06-05T19:52:10.812Z,47.49
2018-06-05T19:54:41.598Z,47.62
2018-06-05T19:57:12.238Z,47.66
2018-06-05T19:59:42.466Z,47.96
2018-06-05T20:02:12.491Z,47.64
2018-06-05T20:04:42.664Z,47.96
2018-06-05T20:07:13.444Z,47.97
2018-06-05T20:09:43.754Z,48.21
2018-06-05T20:12:20.572Z,49.01
2018-06-05T20:14:51.769Z,49.66
2018-06-05T20:17:22.831Z,49.83
2018-06-05T20:19:53.031Z,50.67
2018-06-05T20:22:24.317Z,50.94
2018-06-05T20:24:54.487Z,51.06
2018-06-05T20:27:25.129Z,51.20
2018-06-05T20:29:55.692Z,51.72
2018-06-05T20:32:26.167Z,51.62
2018-06-05T20:34:56.405Z,52.18
2018-06-05T20:37:26.964Z,52.85
2018-06-05T20:39:57.128Z,54.71
2018-06-05T20:42:27.530Z,55.51
2018-06-05T20:44:59.974Z,57.75
2018-06-05T20:47:31.985Z,59.33
2018-06-05T20:50:03.453Z,59.95
2018-06-05T20:53:13.932Z,61.66
2018-06-05T20:55:46.380Z,62.00
2018-06-05T21:07:50.062Z,60.39
2018-06-05T21:10:20.990Z,60.96
2018-06-05T21:12:50.259Z,61.07
2018-06-05T21:15:19.516Z,61.14
2018-06-05T21:17:48.546Z,61.58
2018-06-05T21:20:17.775Z,61.42
2018-06-05T21:22:46.989Z,59.41
2018-06-05T21:25:16.360Z,58.95
2018-06-05T21:27:45.608Z,59.09
2018-06-05T21:30:14.912Z,58.74
2018-06-05T21:32:44.127Z,59.26
2018-06-05T21:35:13.390Z,59.47
2018-06-05T21:37:42.760Z,59.39
2018-06-05T21:40:12.081Z,59.50
2018-06-05T21:42:41.319Z,59.54
2018-06-05T21:45:10.631Z,60.03
2018-06-05T21:47:39.850Z,59.99
2018-06-05T21:50:09.163Z,59.45
2018-06-05T21:52:38.382Z,60.38
2018-06-05T21:55:07.370Z,59.89
2018-06-05T21:57:36.586Z,60.28
2018-06-05T22:00:06.830Z,61.21
2018-06-05T22:02:36.059Z,61.42
2018-06-05T22:05:05.405Z,61.86
2018-06-05T22:07:34.628Z,62.38
2018-06-05T22:10:03.936Z,62.66
2018-06-05T22:12:33.175Z,63.15
2018-06-05T22:15:02.496Z,63.39
2018-06-05T22:17:31.726Z,64.08
2018-06-05T22:20:00.954Z,64.28
2018-06-05T22:22:30.187Z,64.83
2018-06-05T22:24:59.454Z,65.58
2018-06-05T22:27:28.730Z,65.60
2018-06-05T22:29:57.995Z,66.02
2018-06-05T22:32:27.276Z,66.96
2018-06-05T22:34:56.560Z,66.80
2018-06-05T22:37:25.783Z,67.15
2018-06-05T22:39:55.051Z,67.98
2018-06-05T22:42:24.294Z,68.49
2018-06-05T22:44:53.551Z,68.45
2018-06-05T22:47:22.779Z,68.91
2018-06-05T22:49:52.003Z,69.28
2018-06-05T22:52:21.192Z,69.33
2018-06-05T22:54:50.168Z,70.23
2018-06-05T22:57:19.406Z,71.09
2018-06-05T22:59:48.611Z,71.32
2018-06-05T23:02:17.846Z,72.43
2018-06-05T23:04:47.090Z,72.41
2018-06-05T23:07:16.322Z,72.25
2018-06-05T23:09:45.540Z,72.71
2018-06-05T23:12:14.795Z,72.60
2018-06-05T23:14:44.008Z,72.74
2018-06-05T23:17:13.271Z,72.97
2018-06-05T23:19:42.490Z,73.26
2018-06-05T23:22:11.706Z,73.44
2018-06-05T23:24:41.003Z,73.27
2018-06-05T23:27:10.233Z,73.90
2018-06-05T23:29:39.344Z,73.54
2018-06-05T23:32:08.246Z,73.99
2018-06-05T23:34:37.424Z,73.70
2018-06-05T23:37:06.627Z,73.92
2018-06-05T23:39:35.827Z,75.07
2018-06-05T23:42:05.046Z,74.84
2018-06-05T23:44:34.238Z,74.72
2018-06-05T23:47:03.465Z,74.47
2018-06-05T23:49:32.668Z,74.63
2018-06-05T23:52:01.922Z,75.17
2018-06-05T23:54:31.155Z,75.95
2018-06-05T23:57:00.380Z,75.58
2018-06-05T23:59:29.591Z,75.77
